createdAt,value
2017-10-20T00:01:55.419Z,12.43
2017-10-20T00:04:23.631Z,11.17
2017-10-20T00:06:51.139Z,10.87
2017-10-20T00:09:18.747Z,10.10
2017-10-20T00:11:46.259Z,12.23
2017-10-20T00:14:13.791Z,11.53
2017-10-20T00:16:41.328Z,11.10
2017-10-20T00:19:08.883Z,11.57
2017-10-20T00:21:36.395Z,11.57
2017-10-20T00:24:04.004Z,11.40
2017-10-20T00:26:31.516Z,10.70
2017-10-20T00:28:59.119Z,11.00
2017-10-20T00:31:26.887Z,12.10
2017-10-20T00:33:54.421Z,11.70
2017-10-20T00:36:22.695Z,13.27
2017-10-20T00:38:50.995Z,11.40
2017-10-20T00:41:18.503Z,11.43
2017-10-20T00:43:46.063Z,12.67
2017-10-20T00:46:13.571Z,12.23
2017-10-20T00:48:41.137Z,11.00
2017-10-20T00:51:08.688Z,11.63
2017-10-20T00:53:36.199Z,12.30
2017-10-20T00:56:03.803Z,11.63
2017-10-20T00:58:31.315Z,11.77
2017-10-20T01:00:58.924Z,12.03
2017-10-20T01:03:26.443Z,11.47
2017-10-20T01:05:54.040Z,11.93
2017-10-20T01:08:21.579Z,10.47
2017-10-20T01:10:49.871Z,10.00
2017-10-20T01:13:17.435Z,10.70
2017-10-20T01:15:44.963Z,9.57
2017-10-20T01:18:13.248Z,10.00
2017-10-20T01:20:41.539Z,10.53
2017-10-20T01:23:09.380Z,10.30
2017-10-20T01:25:36.899Z,9.70
2017-10-20T01:28:04.403Z,10.10
2017-10-20T01:30:32.704Z,9.60
2017-10-20T01:33:00.208Z,9.90
2017-10-20T01:35:27.834Z,10.87
2017-10-20T01:37:55.343Z,10.53
2017-10-20T01:40:22.944Z,11.97
2017-10-20T01:42:50.499Z,9.20
2017-10-20T01:45:18.008Z,10.10
2017-10-20T01:47:45.531Z,11.70
2017-10-20T01:50:13.046Z,10.50
2017-10-20T01:52:41.343Z,11.97
2017-10-20T01:55:08.860Z,10.80
2017-10-20T01:57:38.002Z,9.40
2017-10-20T02:00:05.568Z,9.67
2017-10-20T02:02:33.449Z,10.13
2017-10-20T02:05:00.987Z,10.97
2017-10-20T02:07:28.511Z,10.60
2017-10-20T02:09:56.021Z,11.63
2017-10-20T02:12:23.548Z,10.80
2017-10-20T02:14:51.823Z,12.23
2017-10-20T02:17:20.115Z,10.57
2017-10-20T02:19:47.685Z,10.53
2017-10-20T02:22:15.206Z,11.93
2017-10-20T02:24:43.484Z,10.17
2017-10-20T02:27:11.792Z,10.60
2017-10-20T02:29:39.345Z,11.10
2017-10-20T02:32:06.854Z,10.73
2017-10-20T02:34:34.981Z,9.73
2017-10-20T02:37:02.512Z,11.17
2017-10-20T02:39:30.803Z,10.97
2017-10-20T02:41:58.577Z,10.30
2017-10-20T02:44:26.439Z,10.40
2017-10-20T02:46:53.947Z,11.03
2017-10-20T02:49:21.476Z,10.77
2017-10-20T02:51:48.989Z,11.47
2017-10-20T02:54:17.285Z,10.07
2017-10-20T02:56:44.846Z,10.23
2017-10-20T02:59:12.412Z,11.10
2017-10-20T03:01:39.963Z,10.23
2017-10-20T03:04:07.487Z,10.67
2017-10-20T03:06:35.004Z,11.07
2017-10-20T03:09:02.528Z,11.07
2017-10-20T03:11:30.800Z,10.57
2017-10-20T03:13:59.204Z,10.37
2017-10-20T03:16:26.715Z,10.30
2017-10-20T03:18:54.227Z,9.50
2017-10-20T03:21:22.211Z,10.20
2017-10-20T03:23:49.715Z,9.00
2017-10-20T03:26:17.999Z,8.90
2017-10-20T03:28:46.331Z,9.10
2017-10-20T03:31:14.357Z,8.70
2017-10-20T03:33:41.924Z,9.20
2017-10-20T03:36:09.447Z,8.63
2017-10-20T03:38:37.720Z,8.80
2017-10-20T03:41:05.924Z,9.37
2017-10-20T03:43:33.423Z,8.10
2017-10-20T03:46:00.944Z,9.87
2017-10-20T03:48:28.500Z,9.40
2017-10-20T03:50:56.019Z,8.80
2017-10-20T03:53:23.526Z,9.20
2017-10-20T03:55:51.039Z,7.90
2017-10-20T03:58:18.556Z,8.40
2017-10-20T04:00:46.085Z,9.70
2017-10-20T04:03:13.592Z,8.60
2017-10-20T04:05:41.116Z,9.27
2017-10-20T04:08:08.667Z,10.00
2017-10-20T04:10:36.183Z,8.50
2017-10-20T04:13:03.739Z,10.00
2017-10-20T04:15:32.027Z,9.23
2017-10-20T04:17:59.530Z,9.33
2017-10-20T04:20:27.075Z,9.83
2017-10-20T04:22:54.596Z,9.57
2017-10-20T04:25:22.107Z,10.30
2017-10-20T04:27:49.626Z,9.93
2017-10-20T04:30:17.906Z,10.43
2017-10-20T04:32:46.214Z,10.87
2017-10-20T04:35:14.240Z,10.67
2017-10-20T04:37:42.135Z,10.50
2017-10-20T04:40:09.649Z,10.40
2017-10-20T04:42:37.251Z,10.03
2017-10-20T04:45:04.811Z,9.97
2017-10-20T04:47:32.335Z,10.20
2017-10-20T04:50:00.543Z,10.50
2017-10-20T04:52:28.111Z,9.83
2017-10-20T04:54:55.663Z,11.00
2017-10-20T04:57:23.190Z,10.90
2017-10-20T04:59:50.785Z,10.90
2017-10-20T05:02:18.323Z,9.80
2017-10-20T05:04:46.597Z,11.30
2017-10-20T05:07:14.991Z,10.77
2017-10-20T05:09:42.908Z,11.13
2017-10-20T05:12:10.631Z,11.60
2017-10-20T05:14:38.141Z,11.60
2017-10-20T05:17:05.662Z,9.50
2017-10-20T05:19:33.200Z,10.53
2017-10-20T05:22:00.729Z,10.93
2017-10-20T05:24:29.008Z,12.03
2017-10-20T05:26:57.299Z,11.90
2017-10-20T05:29:25.590Z,11.97
2017-10-20T05:31:53.119Z,11.00
2017-10-20T05:34:21.487Z,10.60
2017-10-20T05:36:49.088Z,12.13
2017-10-20T05:39:16.598Z,12.67
2017-10-20T05:41:44.103Z,9.90
2017-10-20T05:44:11.631Z,10.70
2017-10-20T05:46:39.931Z,10.80
2017-10-20T05:49:07.829Z,9.97
2017-10-20T05:51:35.335Z,11.27
2017-10-20T05:54:03.632Z,10.00
2017-10-20T05:56:31.195Z,9.57
2017-10-20T05:58:58.715Z,10.40
2017-10-20T06:01:26.227Z,10.50
2017-10-20T06:03:53.778Z,10.37
2017-10-20T06:06:21.288Z,11.03
2017-10-20T06:08:48.883Z,11.80
2017-10-20T06:11:16.394Z,12.70
2017-10-20T06:13:44.684Z,11.80
2017-10-20T06:16:12.274Z,12.23
2017-10-20T06:18:39.821Z,13.77
2017-10-20T06:21:08.091Z,12.17
2017-10-20T06:23:36.403Z,12.70
2017-10-20T06:26:03.915Z,11.80
2017-10-20T06:28:31.592Z,11.30
2017-10-20T06:30:59.987Z,12.80
2017-10-20T06:33:27.495Z,12.30
2017-10-20T06:35:55.019Z,11.67
2017-10-20T06:38:22.528Z,10.30
2017-10-20T06:40:50.066Z,12.57
2017-10-20T06:43:17.586Z,12.40
2017-10-20T06:45:45.114Z,12.50
2017-10-20T06:48:13.387Z,11.77
2017-10-20T06:50:41.683Z,13.10
2017-10-20T06:53:09.204Z,12.47
2017-10-20T06:55:36.728Z,12.70
2017-10-20T06:58:04.235Z,11.40
2017-10-20T07:00:32.536Z,11.57
2017-10-20T07:03:00.043Z,10.93
2017-10-20T07:05:27.792Z,11.53
2017-10-20T07:07:55.314Z,12.37
2017-10-20T07:10:22.962Z,11.43
2017-10-20T07:12:51.255Z,11.70
2017-10-20T07:15:18.764Z,12.00
2017-10-20T07:17:46.287Z,13.03
2017-10-20T07:20:17.473Z,12.27
2017-10-20T07:22:44.998Z,12.67
2017-10-20T07:25:13.174Z,13.37
2017-10-20T07:27:41.015Z,13.33
2017-10-20T07:30:08.528Z,12.00
2017-10-20T07:32:36.244Z,13.17
2017-10-20T07:35:03.756Z,11.90
2017-10-20T07:37:31.283Z,12.83
2017-10-20T07:39:58.786Z,14.63
2017-10-20T07:42:27.079Z,12.60
2017-10-20T07:44:55.289Z,13.13
2017-10-20T07:47:22.810Z,14.17
2017-10-20T07:49:50.379Z,13.10
2017-10-20T07:52:17.957Z,14.23
2017-10-20T07:54:45.454Z,12.57
2017-10-20T07:57:13.130Z,12.17
2017-10-20T07:59:41.399Z,12.60
2017-10-20T08:02:09.696Z,13.70
2017-10-20T08:04:37.211Z,13.27
2017-10-20T08:07:04.737Z,11.97
2017-10-20T08:09:32.274Z,12.93
2017-10-20T08:11:59.835Z,12.47
2017-10-20T08:14:27.395Z,12.97
2017-10-20T08:16:54.918Z,12.33
2017-10-20T08:19:22.510Z,12.63
2017-10-20T08:21:50.031Z,11.77
2017-10-20T08:24:17.535Z,10.00
2017-10-20T08:26:45.062Z,9.83
2017-10-20T08:29:13.363Z,8.30
2017-10-20T08:31:41.244Z,8.17
2017-10-20T08:34:08.758Z,7.60
2017-10-20T08:36:36.465Z,7.10
2017-10-20T08:39:03.983Z,7.63
2017-10-20T08:41:32.251Z,6.43
2017-10-20T08:43:59.843Z,7.20
2017-10-20T08:46:27.403Z,6.40
2017-10-20T08:48:54.963Z,6.03
2017-10-20T08:51:22.462Z,6.60
2017-10-20T08:53:49.988Z,6.33
2017-10-20T08:56:17.489Z,6.70
2017-10-20T08:58:45.007Z,7.57
2017-10-20T09:01:12.556Z,6.63
2017-10-20T09:03:40.130Z,6.30
2017-10-20T09:06:07.635Z,5.83
2017-10-20T09:08:35.227Z,6.33
2017-10-20T09:11:03.503Z,6.33
2017-10-20T09:13:31.062Z,7.00
2017-10-20T09:15:58.619Z,5.80
2017-10-20T09:18:26.197Z,6.03
2017-10-20T09:20:53.735Z,6.70
2017-10-20T09:23:21.240Z,6.77
2017-10-20T09:25:48.752Z,6.13
2017-10-20T09:28:16.247Z,6.30
2017-10-20T09:30:43.803Z,5.77
2017-10-20T09:33:11.327Z,5.70
2017-10-20T09:35:38.887Z,6.40
2017-10-20T09:38:06.960Z,6.10
2017-10-20T09:40:34.474Z,6.00
2017-10-20T09:43:01.989Z,6.20
2017-10-20T09:45:29.536Z,6.43
2017-10-20T09:47:57.251Z,5.00
2017-10-20T09:50:24.772Z,5.70
2017-10-20T09:52:52.270Z,5.83
2017-10-20T09:55:19.871Z,6.30
2017-10-20T09:57:47.371Z,6.70
2017-10-20T10:00:14.986Z,5.60
2017-10-20T10:02:42.551Z,6.40
2017-10-20T10:05:10.059Z,5.90
2017-10-20T10:07:37.661Z,5.20
2017-10-20T10:10:05.184Z,6.17
2017-10-20T10:12:32.787Z,5.97
2017-10-20T10:15:00.359Z,6.30
2017-10-20T10:17:27.877Z,5.63
2017-10-20T10:19:56.142Z,5.60
2017-10-20T10:22:23.659Z,5.50
2017-10-20T10:24:51.158Z,5.77
2017-10-20T10:27:18.683Z,5.67
2017-10-20T10:29:46.183Z,6.73
2017-10-20T10:32:14.466Z,5.90
2017-10-20T10:34:42.726Z,6.10
2017-10-20T10:37:10.239Z,5.57
2017-10-20T10:39:37.738Z,5.63
2017-10-20T10:42:05.268Z,4.53
2017-10-20T10:44:32.795Z,5.30
2017-10-20T10:47:00.355Z,5.40
2017-10-20T10:49:27.911Z,5.57
2017-10-20T10:51:55.426Z,5.03
2017-10-20T10:54:22.941Z,5.57
2017-10-20T10:56:50.467Z,5.30
2017-10-20T10:59:18.736Z,5.20
2017-10-20T11:01:47.039Z,4.50
2017-10-20T11:04:14.539Z,5.30
2017-10-20T11:06:53.987Z,5.00
2017-10-20T11:09:21.595Z,5.10
2017-10-20T11:12:01.136Z,5.37
2017-10-20T11:14:28.691Z,5.30
2017-10-20T11:16:56.459Z,4.80
2017-10-20T11:19:23.966Z,5.13
2017-10-20T11:21:51.478Z,5.20
2017-10-20T11:24:19.028Z,4.93
2017-10-20T11:26:46.791Z,5.47
2017-10-20T11:29:14.360Z,5.00
2017-10-20T11:31:41.911Z,5.07
2017-10-20T11:34:09.483Z,5.40
2017-10-20T11:36:36.988Z,5.20
2017-10-20T11:39:04.503Z,5.10
2017-10-20T11:41:32.002Z,5.40
2017-10-20T11:43:59.601Z,5.43
2017-10-20T11:46:27.162Z,6.00
2017-10-20T11:48:54.727Z,5.80
2017-10-20T11:51:22.283Z,5.00
2017-10-20T11:53:50.003Z,5.37
2017-10-20T11:56:17.604Z,4.93
2017-10-20T11:58:45.133Z,5.27
2017-10-20T12:01:13.438Z,5.50
2017-10-20T12:03:41.218Z,5.27
2017-10-20T12:06:08.719Z,5.53
2017-10-20T12:08:36.848Z,5.30
2017-10-20T12:11:04.379Z,5.13
2017-10-20T12:13:31.955Z,6.30
2017-10-20T12:15:59.471Z,5.30
2017-10-20T12:18:27.066Z,5.80
2017-10-20T12:20:54.584Z,6.30
2017-10-20T12:23:22.182Z,5.73
2017-10-20T12:25:50.715Z,6.00
2017-10-20T12:28:19.047Z,5.33
2017-10-20T12:30:46.558Z,6.20
2017-10-20T12:33:14.138Z,6.43
2017-10-20T12:35:41.723Z,6.07
2017-10-20T12:38:09.279Z,6.67
2017-10-20T12:40:36.857Z,7.03
2017-10-20T12:43:04.358Z,6.03
2017-10-20T12:45:31.874Z,6.03
2017-10-20T12:47:59.372Z,6.43
2017-10-20T12:50:26.970Z,6.70
2017-10-20T12:52:55.180Z,5.97
2017-10-20T12:55:22.709Z,6.07
2017-10-20T12:57:50.213Z,5.90
2017-10-20T13:00:17.735Z,5.30
2017-10-20T13:02:45.243Z,5.60
2017-10-20T13:05:12.834Z,6.40
2017-10-20T13:07:40.339Z,5.53
2017-10-20T13:10:07.854Z,5.57
2017-10-20T13:12:35.372Z,4.50
2017-10-20T13:15:02.970Z,4.97
2017-10-20T13:17:30.530Z,4.33
2017-10-20T13:19:58.046Z,5.30
2017-10-20T13:22:25.543Z,5.60
2017-10-20T13:24:53.216Z,4.60
2017-10-20T13:27:20.715Z,5.77
2017-10-20T13:29:48.227Z,5.50
2017-10-20T13:32:15.731Z,5.83
2017-10-20T13:34:43.238Z,6.10
2017-10-20T13:37:10.799Z,5.90
2017-10-20T13:39:38.298Z,6.10
2017-10-20T13:42:05.815Z,5.80
2017-10-20T13:44:33.317Z,5.60
2017-10-20T13:47:00.830Z,5.07
2017-10-20T13:49:28.335Z,5.33
2017-10-20T13:51:55.854Z,6.10
2017-10-20T13:54:23.403Z,5.50
2017-10-20T13:56:50.952Z,6.10
2017-10-20T13:59:18.438Z,6.00
2017-10-20T14:01:45.949Z,6.50
2017-10-20T14:04:13.535Z,6.27
2017-10-20T14:06:41.202Z,6.77
2017-10-20T14:09:08.761Z,7.03
2017-10-20T14:11:36.315Z,5.90
2017-10-20T14:14:03.875Z,6.23
2017-10-20T14:16:31.394Z,5.83
2017-10-20T14:18:59.426Z,6.30
2017-10-20T14:21:26.943Z,5.77
2017-10-20T14:23:55.684Z,6.00
2017-10-20T14:26:23.198Z,6.17
2017-10-20T14:28:51.462Z,6.83
2017-10-20T14:31:19.762Z,6.40
2017-10-20T14:33:47.319Z,5.97
2017-10-20T14:36:14.823Z,6.00
2017-10-20T14:38:42.336Z,5.23
2017-10-20T14:41:10.103Z,5.30
2017-10-20T14:43:37.614Z,5.77
2017-10-20T14:46:05.111Z,5.43
2017-10-20T14:48:32.671Z,5.60
2017-10-20T14:51:00.172Z,5.70
2017-10-20T14:53:27.687Z,5.40
2017-10-20T14:55:55.186Z,5.93
2017-10-20T14:58:22.706Z,5.20
2017-10-20T15:00:50.206Z,5.23
2017-10-20T15:03:17.818Z,5.70
2017-10-20T15:05:45.319Z,6.17
2017-10-20T15:08:12.838Z,5.63
2017-10-20T15:10:40.338Z,6.00
2017-10-20T15:13:07.855Z,5.90
2017-10-20T15:15:35.355Z,7.33
2017-10-20T15:18:03.380Z,6.70
2017-10-20T15:20:30.904Z,6.70
2017-10-20T15:22:58.499Z,6.10
2017-10-20T15:25:26.004Z,7.03
2017-10-20T15:27:53.520Z,6.63
2017-10-20T15:30:21.030Z,7.80
2017-10-20T15:32:48.631Z,7.37
2017-10-20T15:35:16.147Z,6.87
2017-10-20T15:37:43.647Z,7.80
2017-10-20T15:40:11.204Z,8.53
2017-10-20T15:42:38.770Z,6.93
2017-10-20T15:45:06.287Z,7.10
2017-10-20T15:47:35.295Z,7.10
2017-10-20T15:50:03.583Z,7.23
2017-10-20T15:52:31.846Z,6.33
2017-10-20T15:55:00.160Z,6.20
2017-10-20T15:57:27.663Z,6.33
2017-10-20T15:59:55.181Z,6.53
2017-10-20T16:02:22.680Z,5.87
2017-10-20T16:04:50.294Z,6.20
2017-10-20T16:07:18.023Z,6.10
2017-10-20T16:09:46.322Z,5.80
2017-10-20T16:12:13.829Z,6.53
2017-10-20T16:14:41.351Z,6.00
2017-10-20T16:17:08.854Z,6.90
2017-10-20T16:19:36.366Z,7.60
2017-10-20T16:22:03.915Z,7.30
2017-10-20T16:24:31.430Z,6.60
2017-10-20T16:26:59.699Z,7.70
2017-10-20T16:29:27.231Z,5.33
2017-10-20T16:31:54.763Z,5.30
2017-10-20T16:34:22.271Z,5.60
2017-10-20T16:36:49.782Z,5.17
2017-10-20T16:39:17.335Z,5.40
2017-10-20T16:41:44.851Z,4.20
2017-10-20T16:44:12.351Z,5.37
2017-10-20T16:46:39.866Z,5.00
2017-10-20T16:49:07.375Z,6.40
2017-10-20T16:51:34.927Z,8.10
2017-10-20T16:54:03.198Z,6.00
2017-10-20T16:56:30.759Z,4.97
2017-10-20T16:58:58.315Z,4.67
2017-10-20T17:01:26.500Z,5.90
2017-10-20T17:03:54.050Z,4.30
2017-10-20T17:06:22.034Z,4.37
2017-10-20T17:08:49.531Z,4.50
2017-10-20T17:11:17.042Z,4.57
2017-10-20T17:13:44.543Z,3.90
2017-10-20T17:16:12.151Z,3.90
2017-10-20T17:18:39.716Z,4.53
2017-10-20T17:21:07.231Z,4.23
2017-10-20T17:23:35.857Z,4.70
2017-10-20T17:26:03.399Z,5.03
2017-10-20T17:28:32.438Z,5.10
2017-10-20T17:30:59.960Z,5.57
2017-10-20T17:33:27.518Z,5.60
2017-10-20T17:35:55.015Z,4.80
2017-10-20T17:38:22.539Z,5.10
2017-10-20T17:40:50.113Z,5.07
2017-10-20T17:43:17.627Z,4.70
2017-10-20T17:45:45.172Z,4.57
2017-10-20T17:48:12.703Z,4.40
2017-10-20T17:50:40.225Z,5.23
2017-10-20T17:53:08.510Z,4.90
2017-10-20T17:55:36.293Z,4.30
2017-10-20T17:58:03.810Z,4.80
2017-10-20T18:00:32.110Z,4.27
2017-10-20T18:02:59.627Z,4.40
2017-10-20T18:05:27.227Z,6.13
2017-10-20T18:10:46.705Z,5.00
2017-10-20T18:13:14.991Z,4.97
2017-10-20T18:15:42.543Z,5.47
2017-10-20T18:18:10.063Z,4.57
2017-10-20T18:20:37.558Z,4.37
2017-10-20T18:23:05.075Z,4.00
2017-10-20T18:25:32.583Z,5.53
2017-10-20T18:28:00.110Z,5.83
2017-10-20T18:30:28.381Z,7.03
2017-10-20T18:32:56.692Z,5.17
2017-10-20T18:35:24.199Z,5.10
2017-10-20T18:37:51.814Z,6.23
2017-10-20T18:40:19.335Z,5.80
2017-10-20T18:42:46.838Z,5.00
2017-10-20T18:45:14.375Z,5.27
2017-10-20T18:47:41.879Z,5.33
2017-10-20T18:50:09.503Z,4.40
2017-10-20T18:52:37.003Z,4.50
2017-10-20T18:55:04.620Z,5.57
2017-10-20T18:57:32.294Z,5.60
2017-10-20T18:59:59.811Z,5.23
2017-10-20T19:02:28.232Z,5.00
2017-10-20T19:04:55.777Z,5.30
2017-10-20T19:07:23.288Z,5.30
2017-10-20T19:09:50.802Z,5.10
2017-10-20T19:12:18.307Z,4.60
2017-10-20T19:14:45.827Z,4.57
2017-10-20T19:17:13.334Z,4.80
2017-10-20T19:19:40.851Z,4.43
2017-10-20T19:22:08.498Z,5.10
2017-10-20T19:24:36.711Z,4.73
2017-10-20T19:27:04.219Z,5.10
2017-10-20T19:29:31.774Z,4.80
2017-10-20T19:31:59.275Z,5.30
2017-10-20T19:34:26.920Z,5.03
2017-10-20T19:36:54.791Z,5.80
2017-10-20T19:39:22.311Z,5.67
2017-10-20T19:41:50.579Z,6.20
2017-10-20T19:44:18.983Z,5.27
2017-10-20T19:46:46.478Z,4.83
2017-10-20T19:49:13.997Z,5.80
2017-10-20T19:51:41.503Z,5.03
2017-10-20T19:54:09.139Z,4.80
2017-10-20T19:56:36.655Z,4.40
2017-10-20T19:59:04.926Z,5.80
2017-10-20T20:01:33.320Z,6.23
2017-10-20T20:04:00.835Z,6.37
2017-10-20T20:06:28.447Z,13.00
2017-10-20T20:08:56.003Z,19.60
2017-10-20T20:11:23.536Z,12.73
2017-10-20T20:13:51.844Z,11.33
2017-10-20T20:16:19.527Z,7.77
2017-10-20T20:18:47.118Z,13.23
2017-10-20T20:21:16.142Z,12.00
2017-10-20T20:23:43.647Z,11.00
2017-10-20T20:26:11.362Z,15.70
2017-10-20T20:28:39.263Z,9.03
2017-10-20T20:31:07.379Z,7.53
2017-10-20T20:33:36.176Z,7.87
2017-10-20T20:36:04.607Z,7.43
2017-10-20T20:38:32.119Z,7.57
2017-10-20T20:40:59.651Z,8.60
2017-10-20T20:43:27.155Z,10.20
2017-10-20T20:45:54.716Z,10.37
2017-10-20T20:48:22.267Z,9.93
2017-10-20T20:50:50.311Z,8.90
2017-10-20T20:53:18.979Z,8.93
2017-10-20T20:55:46.515Z,11.03
2017-10-20T20:58:14.032Z,8.47
2017-10-20T21:00:41.531Z,8.40
2017-10-20T21:03:09.045Z,6.30
2017-10-20T21:05:36.729Z,7.17
2017-10-20T21:08:04.247Z,7.57
2017-10-20T21:10:32.519Z,7.27
2017-10-20T21:13:01.265Z,6.83
2017-10-20T21:15:28.764Z,6.13
2017-10-20T21:17:57.071Z,7.03
2017-10-20T21:20:24.622Z,7.00
2017-10-20T21:22:52.903Z,6.67
2017-10-20T21:25:20.414Z,6.87
2017-10-20T21:27:47.988Z,5.70
2017-10-20T21:30:15.578Z,6.70
2017-10-20T21:32:43.103Z,6.10
2017-10-20T21:35:10.604Z,6.60
2017-10-20T21:37:38.231Z,5.97
2017-10-20T21:40:06.615Z,6.60
2017-10-20T21:42:34.229Z,5.90
2017-10-20T21:45:01.887Z,5.70
2017-10-20T21:47:29.390Z,6.97
2017-10-20T21:49:57.677Z,6.70
2017-10-20T21:52:25.938Z,6.40
2017-10-20T21:54:54.241Z,6.27
2017-10-20T21:57:21.746Z,6.70
2017-10-20T21:59:49.354Z,5.60
2017-10-20T22:02:16.919Z,5.23
2017-10-20T22:04:44.474Z,5.13
2017-10-20T22:07:12.030Z,5.57
2017-10-20T22:09:39.544Z,5.30
2017-10-20T22:12:07.051Z,6.20
2017-10-20T22:14:34.622Z,6.00
2017-10-20T22:17:02.128Z,6.50
2017-10-20T22:19:29.651Z,7.90
2017-10-20T22:21:57.882Z,7.30
2017-10-20T22:24:26.179Z,6.37
2017-10-20T22:26:53.739Z,6.23
2017-10-20T22:29:21.413Z,6.43
2017-10-20T22:31:48.910Z,6.00
2017-10-20T22:34:16.523Z,6.20
2017-10-20T22:36:44.079Z,7.10
2017-10-20T22:39:11.808Z,6.30
2017-10-20T22:41:39.412Z,6.57
2017-10-20T22:44:06.910Z,6.30
2017-10-20T22:46:34.510Z,6.53
2017-10-20T22:49:02.587Z,6.60
2017-10-20T22:51:30.138Z,6.30
2017-10-20T22:53:57.715Z,6.27
2017-10-20T22:56:25.280Z,6.60
2017-10-20T22:58:53.087Z,6.13
2017-10-20T23:01:21.409Z,6.03
2017-10-20T23:03:48.915Z,4.97
2017-10-20T23:06:16.527Z,6.23
2017-10-20T23:08:44.040Z,6.13
2017-10-20T23:11:11.551Z,5.63
2017-10-20T23:13:39.059Z,6.40
2017-10-20T23:16:06.650Z,5.90
2017-10-20T23:18:34.162Z,6.00
2017-10-20T23:21:01.781Z,5.87
2017-10-20T23:23:29.287Z,5.83
2017-10-20T23:25:56.798Z,6.83
2017-10-20T23:28:24.346Z,5.70
2017-10-20T23:30:51.863Z,6.00
2017-10-20T23:33:19.372Z,5.57
2017-10-20T23:35:46.891Z,5.50
2017-10-20T23:38:14.463Z,5.60
2017-10-20T23:40:42.755Z,5.20
2017-10-20T23:43:10.300Z,4.70
2017-10-20T23:45:38.590Z,5.70
2017-10-20T23:48:06.106Z,5.17
2017-10-20T23:50:33.632Z,5.33
2017-10-20T23:53:01.181Z,5.70
2017-10-20T23:55:28.826Z,5.23
2017-10-20T23:57:56.500Z,6.13
